Time;durP1;ratioP1;P1;durP2;ratioP2;P2;SDS_P1;SDS_P2;PMS_P1;PMS_P2;Temp;Humidity;BMP_temperature;BMP_pressure;BME280_temperature;BME280_humidity;BME280_pressure;Samples;Min_cycle;Max_cycle;Signal;HPM_P1;HPM_P2
2021/03/30 00:01:15;;;;;;;0.03;0.03;;;16.40;72.60;;;;;;4197558;28;20140;-46
2021/03/30 00:03:36;;;;;;;0.00;0.00;;;16.40;72.50;;;;;;4197781;28;20140;-44
2021/03/30 00:05:57;;;;;;;0.75;0.32;;;16.40;72.40;;;;;;4197626;28;20498;-44
2021/03/30 00:08:19;;;;;;;0.00;0.00;;;16.40;72.40;;;;;;4197907;28;20052;-44
2021/03/30 00:10:42;;;;;;;0.00;0.00;;;16.40;72.40;;;;;;4197669;28;20049;-44
2021/03/30 00:13:03;;;;;;;0.10;0.10;;;16.40;72.40;;;;;;4196878;28;20067;-46
2021/03/30 00:15:24;;;;;;;0.00;0.00;;;16.40;72.40;;;;;;4197629;28;20130;-45
2021/03/30 00:17:45;;;;;;;0.10;0.10;;;16.40;72.40;;;;;;4197645;28;20469;-44
2021/03/30 00:20:09;;;;;;;0.00;0.00;;;16.40;72.40;;;;;;4197757;28;20501;-50
2021/03/30 00:22:31;;;;;;;0.00;0.00;;;16.40;72.40;;;;;;4197182;28;20060;-50
2021/03/30 00:24:52;;;;;;;0.00;0.00;;;16.30;72.20;;;;;;4197565;28;20056;-45
2021/03/30 00:27:13;;;;;;;0.10;0.10;;;16.30;72.10;;;;;;4197231;28;20082;-45
2021/03/30 00:29:42;;;;;;;0.00;0.00;;;16.30;72.10;;;;;;4197504;28;20052;-50
2021/03/30 00:32:04;;;;;;;0.38;0.38;;;16.30;72.10;;;;;;4196877;28;20071;-45
2021/03/30 00:34:25;;;;;;;0.00;0.00;;;16.30;72.10;;;;;;4197317;28;20053;-44
2021/03/30 00:36:46;;;;;;;0.00;0.00;;;16.30;72.20;;;;;;4197312;28;20060;-45
2021/03/30 00:39:08;;;;;;;0.00;0.00;;;16.30;72.20;;;;;;4197288;28;20056;-44
2021/03/30 00:41:29;;;;;;;0.00;0.00;;;16.30;73.10;;;;;;4197021;28;20067;-44
2021/03/30 00:43:50;;;;;;;0.52;0.52;;;16.30;72.10;;;;;;4197159;28;20609;-44
2021/03/30 00:46:14;;;;;;;0.00;0.00;;;16.30;72.10;;;;;;4197198;28;20459;-46
2021/03/30 00:48:35;;;;;;;0.00;0.00;;;16.30;72.10;;;;;;4197197;28;20053;-45
2021/03/30 00:50:56;;;;;;;0.00;0.00;;;16.20;72.00;;;;;;4196990;28;20060;-46
2021/03/30 00:53:56;;;;;;;0.00;0.00;;;16.20;72.00;;;;;;4129235;28;20527;-44
2021/03/30 00:56:42;;;;;;;0.00;0.00;;;16.20;72.10;;;;;;4113029;28;20051;-44
2021/03/30 00:59:03;;;;;;;0.00;0.00;;;16.20;72.10;;;;;;4154958;28;20041;-44
2021/03/30 01:01:24;;;;;;;0.00;0.00;;;16.20;72.00;;;;;;4186991;28;20110;-46
2021/03/30 01:03:45;;;;;;;0.05;0.05;;;16.20;72.10;;;;;;4196747;28;20052;-44
2021/03/30 01:06:06;;;;;;;0.10;0.10;;;16.20;72.10;;;;;;4196729;28;20056;-45
2021/03/30 01:08:47;;;;;;;0.00;0.00;;;16.20;72.10;;;;;;4196684;28;20075;-44
2021/03/30 01:11:20;;;;;;;0.00;0.00;;;16.20;72.10;;;;;;4196256;28;20048;-45
2021/03/30 01:14:01;;;;;;;0.00;0.00;;;16.10;72.00;;;;;;4196722;28;20388;-44
2021/03/30 01:16:29;;;;;;;0.30;0.30;;;16.20;72.10;;;;;;4196707;28;20075;-44
2021/03/30 01:18:55;;;;;;;0.00;0.00;;;16.10;72.10;;;;;;4196465;28;20056;-48
2021/03/30 01:22:07;;;;;;;0.05;0.05;;;16.10;72.10;;;;;;4196134;28;20070;-47
2021/03/30 01:24:35;;;;;;;0.00;0.00;;;16.10;72.10;;;;;;4161547;28;20140;-46
2021/03/30 01:26:58;;;;;;;0.30;0.30;;;16.10;72.10;;;;;;4160876;28;20061;-47
2021/03/30 01:29:40;;;;;;;0.00;0.00;;;16.10;72.10;;;;;;4177268;28;20052;-48
2021/03/30 01:32:02;;;;;;;0.22;0.22;;;16.10;72.10;;;;;;4196111;28;20062;-46
2021/03/30 01:34:25;;;;;;;0.10;0.10;;;16.10;72.10;;;;;;4196269;28;20049;-51
2021/03/30 01:36:47;;;;;;;0.00;0.00;;;16.10;72.00;;;;;;4196202;28;20056;-50
2021/03/30 01:39:10;;;;;;;0.00;0.00;;;16.10;72.90;;;;;;4192217;28;20528;-48
2021/03/30 01:41:30;;;;;;;0.00;0.00;;;16.00;72.00;;;;;;4196214;28;20055;-46
2021/03/30 01:43:52;;;;;;;0.00;0.00;;;16.10;72.00;;;;;;4196060;28;20052;-44
2021/03/30 01:46:14;;;;;;;0.13;0.13;;;16.00;72.90;;;;;;4196141;28;20067;-44
2021/03/30 01:48:35;;;;;;;1.00;0.85;;;16.00;72.00;;;;;;4195861;28;20064;-44
2021/03/30 01:50:57;;;;;;;0.95;0.40;;;16.00;72.00;;;;;;4195152;28;20064;-44
2021/03/30 01:53:20;;;;;;;0.00;0.00;;;16.00;72.00;;;;;;4196049;28;20057;-46
2021/03/30 01:55:42;;;;;;;0.00;0.00;;;16.00;72.00;;;;;;4194627;28;20052;-46
2021/03/30 01:58:04;;;;;;;0.00;0.00;;;16.00;72.00;;;;;;4195922;28;20052;-46
2021/03/30 02:00:29;;;;;;;0.00;0.00;;;16.00;72.10;;;;;;4196117;28;20299;-47
2021/03/30 02:02:51;;;;;;;0.17;0.17;;;16.00;72.10;;;;;;4195226;28;20517;-45
2021/03/30 02:05:13;;;;;;;0.30;0.30;;;16.00;72.10;;;;;;4195777;28;20048;-44
2021/03/30 02:07:34;;;;;;;0.00;0.00;;;16.00;72.00;;;;;;4178127;28;20493;-44
2021/03/30 02:09:59;;;;;;;;;;;16.00;72.00;;;;;;4179727;28;20060;-46
2021/03/30 02:12:23;;;;;;;0.00;0.00;;;16.00;72.10;;;;;;4195688;28;19924;-45
2021/03/30 02:14:45;;;;;;;0.00;0.00;;;16.00;72.00;;;;;;4195788;28;20044;-46
2021/03/30 02:17:12;;;;;;;2.33;1.33;;;16.00;72.10;;;;;;4195467;28;20052;-47
2021/03/30 02:19:40;;;;;;;0.00;0.00;;;15.90;72.00;;;;;;4195885;28;20453;-44
2021/03/30 02:22:06;;;;;;;0.20;0.20;;;15.90;72.00;;;;;;4194994;28;20591;-45
2021/03/30 02:24:30;;;;;;;0.00;0.00;;;15.90;72.00;;;;;;4195769;28;20048;-44
2021/03/30 02:26:54;;;;;;;0.00;0.00;;;15.90;72.00;;;;;;4195289;28;20495;-44
2021/03/30 02:29:17;;;;;;;0.00;0.00;;;15.90;72.00;;;;;;4195836;28;20098;-45
2021/03/30 02:31:42;;;;;;;0.43;0.43;;;15.90;72.00;;;;;;4195817;28;20052;-47
2021/03/30 02:34:07;;;;;;;0.00;0.00;;;15.90;72.00;;;;;;4195462;28;20475;-45
2021/03/30 02:36:29;;;;;;;0.57;0.57;;;15.90;72.00;;;;;;4195679;28;20514;-44
2021/03/30 02:38:52;;;;;;;0.43;0.43;;;15.90;72.00;;;;;;4195668;28;20131;-46
2021/03/30 02:41:14;;;;;;;0.10;0.10;;;15.90;72.00;;;;;;4194982;28;20056;-50
2021/03/30 02:43:36;;;;;;;0.10;0.10;;;15.90;71.90;;;;;;4195343;28;20056;-49
2021/03/30 02:45:58;;;;;;;0.10;0.10;;;15.90;72.00;;;;;;4195453;28;20044;-47
2021/03/30 02:48:20;;;;;;;6.22;1.00;;;15.90;71.90;;;;;;4195684;28;20055;-47
2021/03/30 02:50:42;;;;;;;0.00;0.00;;;15.80;72.00;;;;;;4182767;28;20044;-44
2021/03/30 02:53:04;;;;;;;0.25;0.25;;;15.90;72.30;;;;;;4195478;28;20122;-44
2021/03/30 02:55:25;;;;;;;0.00;0.00;;;15.80;72.30;;;;;;4195401;28;21984;-44
2021/03/30 02:57:47;;;;;;;0.00;0.00;;;15.90;72.40;;;;;;4195495;28;20194;-45
2021/03/30 03:00:11;;;;;;;0.00;0.00;;;15.80;72.40;;;;;;4194953;28;20052;-45
2021/03/30 03:02:33;;;;;;;0.00;0.00;;;15.90;72.40;;;;;;4195403;28;20060;-43
2021/03/30 03:04:54;;;;;;;0.17;0.10;;;15.90;72.40;;;;;;4195457;28;20056;-44
2021/03/30 03:07:16;;;;;;;0.88;0.88;;;15.80;72.40;;;;;;4195289;28;20491;-45
2021/03/30 03:09:38;;;;;;;0.10;0.10;;;15.80;73.20;;;;;;4195542;28;20060;-45
2021/03/30 03:12:00;;;;;;;0.00;0.00;;;15.80;72.40;;;;;;4195007;28;20060;-45
2021/03/30 03:14:22;;;;;;;0.43;0.43;;;15.80;72.40;;;;;;4195081;28;20055;-44
2021/03/30 03:16:45;;;;;;;2.63;2.17;;;15.80;72.40;;;;;;4195159;28;20110;-44
2021/03/30 03:19:07;;;;;;;0.00;0.00;;;15.80;72.40;;;;;;4195287;28;20056;-45
2021/03/30 03:21:29;;;;;;;0.10;0.10;;;15.80;72.30;;;;;;4194650;28;20056;-44
2021/03/30 03:23:50;;;;;;;0.00;0.00;;;15.80;72.30;;;;;;4187024;28;20045;-44
2021/03/30 03:26:13;;;;;;;1.17;1.08;;;15.80;72.30;;;;;;4194995;28;20059;-46
2021/03/30 03:28:39;;;;;;;0.00;0.00;;;15.80;72.20;;;;;;4195034;28;20503;-45
2021/03/30 03:31:00;;;;;;;0.00;0.00;;;15.80;72.30;;;;;;4195055;28;20053;-44
2021/03/30 03:33:21;;;;;;;5.15;1.45;;;15.80;72.30;;;;;;4197534;28;20120;-45
2021/03/30 03:35:59;;;;;;;0.35;0.20;;;15.80;72.30;;;;;;4198324;28;20059;-44
2021/03/30 03:38:20;;;;;;;0.15;0.15;;;15.80;72.30;;;;;;4197038;28;20083;-46
2021/03/30 03:40:42;;;;;;;1.65;0.52;;;15.80;72.30;;;;;;4197788;28;20044;-44
2021/03/30 03:43:04;;;;;;;0.52;0.52;;;15.70;72.30;;;;;;4198182;28;20052;-44
2021/03/30 03:45:25;;;;;;;0.00;0.00;;;15.80;72.30;;;;;;4197809;28;20155;-46
2021/03/30 03:47:46;;;;;;;0.00;0.00;;;15.70;72.20;;;;;;4198224;28;20106;-44
2021/03/30 03:50:08;;;;;;;0.35;0.35;;;15.70;72.20;;;;;;4197848;28;20056;-46
2021/03/30 03:52:30;;;;;;;0.00;0.00;;;15.70;72.30;;;;;;4197941;28;20568;-49
2021/03/30 03:54:54;;;;;;;0.00;0.00;;;15.70;72.30;;;;;;4197757;28;20506;-43
2021/03/30 03:57:21;;;;;;;0.05;0.05;;;15.70;72.30;;;;;;4197882;28;20083;-46
2021/03/30 03:59:45;;;;;;;0.00;0.00;;;15.70;72.20;;;;;;4196771;28;20050;-44
2021/03/30 04:02:11;;;;;;;0.00;0.00;;;15.70;72.30;;;;;;4197392;28;20498;-44
2021/03/30 04:04:41;;;;;;;0.00;0.00;;;15.70;72.30;;;;;;4197632;28;20055;-44
2021/03/30 04:07:05;;;;;;;0.00;0.00;;;15.70;72.30;;;;;;4197553;28;20541;-45
2021/03/30 04:09:27;;;;;;;0.00;0.00;;;15.70;72.30;;;;;;4197714;28;20071;-45
2021/03/30 04:11:51;;;;;;;0.00;0.00;;;15.70;72.30;;;;;;4181226;28;20411;-51
2021/03/30 04:14:12;;;;;;;0.05;0.05;;;15.60;72.20;;;;;;4180973;28;20056;-48
2021/03/30 04:16:34;;;;;;;;;;;15.60;72.20;;;;;;4181467;28;20076;-44
2021/03/30 04:18:55;;;;;;;0.00;0.00;;;15.60;72.30;;;;;;4181115;28;20019;-45
2021/03/30 04:21:21;;;;;;;0.10;0.10;;;15.60;72.30;;;;;;4192635;28;20529;-46
2021/03/30 04:23:45;;;;;;;0.00;0.00;;;15.60;72.30;;;;;;4197486;28;20135;-47
2021/03/30 04:26:07;;;;;;;0.00;0.00;;;15.60;72.30;;;;;;4196942;28;20056;-46
2021/03/30 04:28:27;;;;;;;10.55;1.08;;;15.60;72.40;;;;;;4197164;28;20056;-45
2021/03/30 04:30:48;;;;;;;0.00;0.00;;;15.60;72.40;;;;;;4196820;28;20048;-44
2021/03/30 04:33:10;;;;;;;1.10;1.10;;;15.60;72.40;;;;;;4197287;28;20506;-43
2021/03/30 04:35:31;;;;;;;0.00;0.00;;;15.60;72.40;;;;;;4197192;28;20054;-44
2021/03/30 04:37:52;;;;;;;0.03;0.03;;;15.50;72.20;;;;;;4197191;28;20052;-48
2021/03/30 04:40:14;;;;;;;0.30;0.30;;;15.60;72.30;;;;;;4196787;28;20052;-47
2021/03/30 04:42:35;;;;;;;0.00;0.00;;;15.60;72.30;;;;;;4196837;28;20143;-44
2021/03/30 04:44:56;;;;;;;0.00;0.00;;;15.60;72.30;;;;;;4196209;28;20159;-44
2021/03/30 04:47:18;;;;;;;0.00;0.00;;;15.60;72.40;;;;;;4197094;28;20052;-44
2021/03/30 04:49:39;;;;;;;0.08;0.08;;;15.60;72.40;;;;;;4196612;28;20045;-48
2021/03/30 04:52:00;;;;;;;0.00;0.00;;;15.50;72.30;;;;;;4196964;28;20086;-45
2021/03/30 04:54:22;;;;;;;0.00;0.00;;;15.50;72.30;;;;;;4196878;28;20053;-44
2021/03/30 04:56:42;;;;;;;0.00;0.00;;;15.50;72.30;;;;;;4196715;28;20498;-45
2021/03/30 04:59:03;;;;;;;0.00;0.00;;;15.50;72.30;;;;;;4196754;28;20060;-51
2021/03/30 05:01:25;;;;;;;0.00;0.00;;;15.50;72.30;;;;;;4196211;28;20299;-49
2021/03/30 05:03:46;;;;;;;0.00;0.00;;;15.50;72.30;;;;;;4195807;28;20462;-46
2021/03/30 05:06:08;;;;;;;0.10;0.10;;;15.50;72.30;;;;;;4196726;28;20155;-44
2021/03/30 05:08:29;;;;;;;0.10;0.10;;;15.50;72.20;;;;;;4196596;28;20056;-44
2021/03/30 05:10:50;;;;;;;0.00;0.00;;;15.50;72.30;;;;;;4196490;28;20063;-46
2021/03/30 05:13:11;;;;;;;0.00;0.00;;;15.50;72.30;;;;;;4196576;28;20064;-46
2021/03/30 05:15:33;;;;;;;0.00;0.00;;;15.50;72.20;;;;;;4196568;28;20067;-44
2021/03/30 05:17:54;;;;;;;0.00;0.00;;;15.50;72.20;;;;;;4196446;28;20044;-45
2021/03/30 05:20:15;;;;;;;0.10;0.10;;;15.50;72.20;;;;;;4196392;28;20102;-46
2021/03/30 05:22:37;;;;;;;0.00;0.00;;;15.40;72.20;;;;;;4196447;28;20514;-45
2021/03/30 05:24:59;;;;;;;1.00;0.75;;;15.40;72.20;;;;;;4195938;28;20158;-46
2021/03/30 05:27:20;;;;;;;0.00;0.00;;;15.40;72.50;;;;;;4196311;28;20055;-50
2021/03/30 05:29:44;;;;;;;0.15;0.15;;;15.50;72.70;;;;;;4196428;28;20098;-52
2021/03/30 05:32:06;;;;;;;0.00;0.00;;;15.50;73.00;;;;;;4196318;28;20060;-50
2021/03/30 05:34:26;;;;;;;0.00;0.00;;;15.50;73.10;;;;;;4196063;28;20064;-49
2021/03/30 05:36:47;;;;;;;0.00;0.00;;;15.50;73.10;;;;;;4196286;28;20509;-48
2021/03/30 05:39:09;;;;;;;0.32;0.32;;;15.50;73.20;;;;;;4195750;28;20052;-51
2021/03/30 05:41:30;;;;;;;0.00;0.00;;;15.50;73.70;;;;;;4191100;28;20089;-49
2021/03/30 05:43:52;;;;;;;0.00;0.00;;;15.60;74.30;;;;;;4196344;28;20076;-50
2021/03/30 05:46:13;;;;;;;2.53;2.28;;;15.70;73.80;;;;;;4179747;28;20057;-48
2021/03/30 05:48:35;;;;;;;2.50;0.77;;;15.70;73.50;;;;;;4195456;28;20044;-53
2021/03/30 05:50:57;;;;;;;0.55;0.55;;;15.70;73.40;;;;;;4195907;28;20498;-48
2021/03/30 05:53:18;;;;;;;2.72;1.55;;;15.60;73.00;;;;;;4195906;28;20067;-51
2021/03/30 05:55:40;;;;;;;;;;;15.60;72.80;;;;;;4195463;28;20048;-53
2021/03/30 05:58:03;;;;;;;0.47;0.47;;;15.60;72.60;;;;;;4195992;28;19931;-52
2021/03/30 06:00:26;;;;;;;0.00;0.00;;;15.60;72.40;;;;;;4188627;28;20048;-47
2021/03/30 06:02:49;;;;;;;0.45;0.45;;;15.60;72.20;;;;;;4179531;28;20064;-49
2021/03/30 06:05:14;;;;;;;1.65;1.17;;;15.60;72.00;;;;;;4179632;28;20053;-50
2021/03/30 06:07:37;;;;;;;1.00;1.00;;;15.50;71.90;;;;;;4179526;28;20059;-49
2021/03/30 06:09:58;;;;;;;0.55;0.55;;;15.50;71.80;;;;;;4188203;28;20135;-50
2021/03/30 06:12:20;;;;;;;0.00;0.00;;;15.50;71.50;;;;;;4195951;28;20596;-48
2021/03/30 06:14:43;;;;;;;1.65;0.70;;;15.50;71.30;;;;;;4195791;28;20052;-47
2021/03/30 06:17:06;;;;;;;0.10;0.10;;;15.50;71.00;;;;;;4195968;28;20461;-48
2021/03/30 06:19:27;;;;;;;0.20;0.20;;;15.50;70.90;;;;;;4195654;28;20076;-48
2021/03/30 06:21:59;;;;;;;0.10;0.10;;;15.40;70.70;;;;;;4195904;28;20581;-46
2021/03/30 06:24:29;;;;;;;1.20;1.20;;;15.40;70.50;;;;;;4195779;28;20136;-51
2021/03/30 06:26:52;;;;;;;0.00;0.00;;;15.40;70.30;;;;;;4195984;28;20514;-45
2021/03/30 06:29:24;;;;;;;0.00;0.00;;;15.50;70.10;;;;;;4195282;28;20048;-46
2021/03/30 06:31:45;;;;;;;0.20;0.20;;;15.40;69.90;;;;;;4195794;28;20126;-45
2021/03/30 06:34:07;;;;;;;0.00;0.00;;;15.50;69.60;;;;;;4179279;28;20064;-47
2021/03/30 06:36:31;;;;;;;0.75;0.75;;;15.50;69.50;;;;;;4178704;28;20080;-45
2021/03/30 06:38:55;;;;;;;0.00;0.00;;;15.40;69.10;;;;;;4180535;28;20056;-45
2021/03/30 06:41:42;;;;;;;0.00;0.00;;;15.50;69.10;;;;;;4195573;28;20080;-45
2021/03/30 06:46:45;;;;;;;1.02;0.95;;;15.40;68.70;;;;;;4195546;28;20541;-46
2021/03/30 06:49:07;;;;;;;0.93;0.73;;;15.40;68.50;;;;;;4195350;28;20491;-45
2021/03/30 06:51:27;;;;;;;0.08;0.08;;;15.40;68.30;;;;;;4195553;28;20049;-49
2021/03/30 06:53:49;;;;;;;0.10;0.10;;;15.40;68.20;;;;;;4195447;28;20135;-46
2021/03/30 06:56:10;;;;;;;0.30;0.30;;;15.40;68.20;;;;;;4195548;28;20064;-44
2021/03/30 06:58:55;;;;;;;1.65;1.60;;;15.40;68.20;;;;;;4195057;28;20477;-44
2021/03/30 07:01:17;;;;;;;2.15;2.13;;;15.40;68.30;;;;;;4194684;28;20511;-45
2021/03/30 07:03:40;;;;;;;2.92;2.28;;;15.40;68.60;;;;;;4195341;28;20165;-47
2021/03/30 07:06:12;;;;;;;1.70;1.15;;;15.40;68.50;;;;;;4195471;28;20564;-47
2021/03/30 07:08:33;;;;;;;0.22;0.22;;;15.40;68.40;;;;;;4198257;28;20049;-47
2021/03/30 07:10:56;;;;;;;0.77;0.77;;;15.40;68.40;;;;;;4198526;28;20052;-45
2021/03/30 07:13:19;;;;;;;0.75;0.75;;;15.40;68.30;;;;;;4197848;28;20060;-46
2021/03/30 07:15:41;;;;;;;34.28;2.83;;;15.40;68.20;;;;;;4198649;28;20059;-45
2021/03/30 07:18:06;;;;;;;0.45;0.45;;;15.40;68.20;;;;;;4198019;28;20045;-46
2021/03/30 07:20:30;;;;;;;2.13;2.03;;;15.40;68.30;;;;;;4197707;28;20127;-50
2021/03/30 07:22:53;;;;;;;2.50;1.67;;;15.40;68.20;;;;;;4198188;28;20049;-48
2021/03/30 07:25:20;;;;;;;0.32;0.32;;;15.40;68.20;;;;;;4198307;28;20048;-46
2021/03/30 07:27:47;;;;;;;2.85;2.20;;;15.50;68.10;;;;;;4198308;28;20056;-48
2021/03/30 07:30:11;;;;;;;1.30;1.30;;;15.50;67.80;;;;;;4198106;28;20059;-45
2021/03/30 07:32:41;;;;;;;1.80;1.73;;;15.50;67.50;;;;;;4198110;28;20080;-45
2021/03/30 07:35:06;;;;;;;0.35;0.35;;;15.60;67.20;;;;;;4198245;28;20426;-46
2021/03/30 07:37:34;;;;;;;4.18;3.17;;;15.60;66.90;;;;;;4197683;28;20516;-45
2021/03/30 07:39:58;;;;;;;5.18;1.35;;;15.60;66.60;;;;;;4197840;28;20554;-44
2021/03/30 07:42:19;;;;;;;2.40;1.25;;;15.70;66.40;;;;;;4198132;28;20410;-47
2021/03/30 07:44:41;;;;;;;0.08;0.08;;;15.70;66.10;;;;;;4198021;28;20048;-44
2021/03/30 07:47:02;;;;;;;0.63;0.63;;;15.80;65.90;;;;;;4197993;28;20076;-46
2021/03/30 07:49:28;;;;;;;0.17;0.17;;;15.80;65.70;;;;;;4197605;28;20571;-47
2021/03/30 07:51:49;;;;;;;0.73;0.73;;;15.80;65.50;;;;;;4197798;28;20048;-50
2021/03/30 07:54:13;;;;;;;1.38;1.27;;;15.80;66.30;;;;;;4197741;28;20052;-49
2021/03/30 07:56:54;;;;;;;0.95;0.95;;;15.80;65.20;;;;;;4197991;28;20048;-46
2021/03/30 07:59:49;;;;;;;1.00;1.00;;;15.90;65.10;;;;;;4197937;28;20129;-45
2021/03/30 08:02:12;;;;;;;0.20;0.20;;;15.90;65.00;;;;;;4197750;28;20159;-45
2021/03/30 08:04:33;;;;;;;1.02;1.02;;;15.90;64.90;;;;;;4197403;28;20823;-45
2021/03/30 08:06:55;;;;;;;2.80;1.00;;;15.90;64.60;;;;;;4197544;28;20785;-45
2021/03/30 08:09:19;;;;;;;0.20;0.20;;;15.90;64.50;;;;;;4197612;28;20048;-51
2021/03/30 08:11:52;;;;;;;0.32;0.32;;;15.90;64.50;;;;;;4197542;28;20053;-46
2021/03/30 08:14:40;;;;;;;0.80;0.80;;;16.00;64.40;;;;;;4196825;28;20056;-45
2021/03/30 08:17:11;;;;;;;1.45;1.35;;;16.00;64.30;;;;;;4197484;28;20767;-47
2021/03/30 08:19:32;;;;;;;0.00;0.00;;;16.00;64.20;;;;;;4196570;28;20495;-47
2021/03/30 08:21:56;;;;;;;0.05;0.05;;;16.00;64.10;;;;;;4197619;28;20056;-44
2021/03/30 08:24:17;;;;;;;0.10;0.10;;;16.00;64.00;;;;;;4197307;28;20053;-45
2021/03/30 08:26:40;;;;;;;2.75;1.02;;;16.10;64.00;;;;;;4180833;28;20045;-51
2021/03/30 08:29:03;;;;;;;0.38;0.38;;;16.10;63.90;;;;;;4180867;28;20049;-46
2021/03/30 08:31:28;;;;;;;0.63;0.63;;;16.10;63.70;;;;;;4180885;28;20564;-45
2021/03/30 08:33:50;;;;;;;0.20;0.20;;;16.10;63.60;;;;;;4196371;28;20135;-47
2021/03/30 08:36:36;;;;;;;0.00;0.00;;;16.10;63.40;;;;;;4197331;28;20052;-45
2021/03/30 08:39:01;;;;;;;0.00;0.00;;;16.10;63.30;;;;;;4196605;28;20083;-45
2021/03/30 08:41:51;;;;;;;0.32;0.32;;;16.20;63.20;;;;;;4196391;28;20402;-45
2021/03/30 08:44:14;;;;;;;0.10;0.10;;;16.20;63.10;;;;;;4197052;28;20418;-46
2021/03/30 08:46:38;;;;;;;0.00;0.00;;;16.20;62.90;;;;;;4197139;28;20474;-45
2021/03/30 08:48:59;;;;;;;0.03;0.03;;;16.20;62.90;;;;;;4197182;28;20053;-45
2021/03/30 08:51:22;;;;;;;0.15;0.15;;;16.20;62.70;;;;;;4197078;28;20059;-47
2021/03/30 08:53:44;;;;;;;1.55;1.17;;;16.20;62.70;;;;;;4190735;28;20071;-45
2021/03/30 08:56:09;;;;;;;0.10;0.10;;;16.20;62.60;;;;;;4197025;28;20396;-45
2021/03/30 08:58:32;;;;;;;0.10;0.10;;;16.30;62.60;;;;;;4196915;28;20074;-45
2021/03/30 09:00:55;;;;;;;0.00;0.00;;;16.30;62.50;;;;;;4196941;28;20572;-47
2021/03/30 09:03:26;;;;;;;0.38;0.28;;;16.30;62.40;;;;;;4163575;28;20527;-45
2021/03/30 09:05:46;;;;;;;0.00;0.00;;;16.30;62.10;;;;;;4164034;28;20059;-50
2021/03/30 09:08:10;;;;;;;0.20;0.20;;;16.30;62.10;;;;;;4163715;28;20061;-50
2021/03/30 09:10:31;;;;;;;0.20;0.20;;;16.30;61.80;;;;;;4160018;28;20052;-46
2021/03/30 09:13:10;;;;;;;0.45;0.45;;;16.40;61.90;;;;;;4153666;28;20049;-51
2021/03/30 09:15:31;;;;;;;0.08;0.08;;;16.40;61.80;;;;;;4155514;28;20454;-47
2021/03/30 09:17:56;;;;;;;0.35;0.35;;;16.40;61.80;;;;;;4163729;28;20522;-49
2021/03/30 09:20:19;;;;;;;0.40;0.40;;;16.40;61.90;;;;;;4163666;28;20080;-50
2021/03/30 09:22:47;;;;;;;0.57;0.57;;;16.50;62.10;;;;;;4163453;28;20397;-47
2021/03/30 09:25:22;;;;;;;0.00;0.00;;;16.50;62.10;;;;;;4147244;28;20054;-45
2021/03/30 09:27:45;;;;;;;0.10;0.10;;;16.50;62.20;;;;;;4147167;28;20064;-45
2021/03/30 09:30:08;;;;;;;0.08;0.08;;;16.50;62.20;;;;;;4163153;28;20041;-48
2021/03/30 09:32:32;;;;;;;0.15;0.10;;;16.60;62.30;;;;;;4163467;28;20057;-47
2021/03/30 09:34:53;;;;;;;0.25;0.25;;;16.60;62.20;;;;;;4163086;28;20064;-46
2021/03/30 09:37:15;;;;;;;0.52;0.52;;;16.60;62.10;;;;;;4163418;28;20056;-50
2021/03/30 09:39:37;;;;;;;0.40;0.40;;;16.70;62.10;;;;;;4162959;28;20057;-46
2021/03/30 09:41:58;;;;;;;0.22;0.22;;;16.70;61.90;;;;;;4163332;28;20080;-47
2021/03/30 09:44:20;;;;;;;;;;;16.70;62.80;;;;;;4163728;28;20053;-48
2021/03/30 09:46:41;;;;;;;0.32;0.32;;;16.80;61.70;;;;;;4162994;28;19925;-50
2021/03/30 09:49:04;;;;;;;;;;;16.80;61.60;;;;;;4163643;28;20119;-47
2021/03/30 09:51:25;;;;;;;1.27;0.45;;;16.80;61.60;;;;;;4162850;28;19925;-44
2021/03/30 09:53:47;;;;;;;0.57;0.57;;;16.90;61.60;;;;;;4162739;28;20060;-46
2021/03/30 09:56:19;;;;;;;0.10;0.10;;;16.90;61.60;;;;;;4162504;28;20455;-47
2021/03/30 09:58:40;;;;;;;7.45;1.98;;;16.90;61.50;;;;;;4163004;28;20152;-46
2021/03/30 10:01:01;;;;;;;0.30;0.30;;;16.90;61.40;;;;;;4164041;28;20057;-46
2021/03/30 10:03:25;;;;;;;0.22;0.22;;;17.00;61.30;;;;;;4195923;28;20122;-46
2021/03/30 10:05:46;;;;;;;0.75;0.75;;;17.00;61.20;;;;;;4195900;28;20057;-44
2021/03/30 10:08:17;;;;;;;1.00;0.80;;;17.00;61.20;;;;;;4195770;28;20135;-45
2021/03/30 10:10:44;;;;;;;0.55;0.55;;;17.00;61.00;;;;;;4194975;28;20506;-47
2021/03/30 10:13:07;;;;;;;7.68;1.38;;;17.10;61.00;;;;;;4195176;28;20049;-51
2021/03/30 10:15:31;;;;;;;0.05;0.05;;;17.10;61.00;;;;;;4195505;28;20469;-48
2021/03/30 10:17:53;;;;;;;1.85;0.88;;;17.10;60.80;;;;;;4195587;28;20068;-43
2021/03/30 10:20:14;;;;;;;0.00;0.00;;;17.10;61.70;;;;;;4195425;28;20458;-46
2021/03/30 10:22:36;;;;;;;0.00;0.00;;;17.20;60.90;;;;;;4195412;28;20487;-46
2021/03/30 10:25:11;;;;;;;0.00;0.00;;;17.20;60.70;;;;;;4195060;28;20401;-45
2021/03/30 10:27:35;;;;;;;0.00;0.00;;;17.30;60.70;;;;;;4195679;28;20141;-45
2021/03/30 10:29:58;;;;;;;0.85;0.85;;;17.30;60.60;;;;;;4192105;28;20139;-46
2021/03/30 10:32:21;;;;;;;0.40;0.40;;;17.40;60.60;;;;;;4178938;28;20053;-45
2021/03/30 10:34:43;;;;;;;0.60;0.60;;;17.40;60.50;;;;;;4179857;28;20059;-47
2021/03/30 10:37:05;;;;;;;1.23;0.82;;;17.40;60.50;;;;;;4193939;28;20059;-46
2021/03/30 10:39:30;;;;;;;0.43;0.43;;;17.40;60.40;;;;;;4195652;28;20086;-47
2021/03/30 10:42:01;;;;;;;0.63;0.63;;;17.40;61.30;;;;;;4197014;28;20562;-45
2021/03/30 10:44:34;;;;;;;0.00;0.00;;;17.50;60.40;;;;;;4199624;28;20513;-45
2021/03/30 10:46:55;;;;;;;0.05;0.05;;;17.50;60.30;;;;;;4199630;28;20095;-46
2021/03/30 10:49:16;;;;;;;1.35;1.25;;;17.50;60.30;;;;;;4200288;28;20048;-45
2021/03/30 10:51:40;;;;;;;0.10;0.10;;;17.50;60.20;;;;;;4200961;28;20057;-44
2021/03/30 10:54:04;;;;;;;0.40;0.40;;;17.60;60.10;;;;;;4200271;28;20056;-43
2021/03/30 10:56:25;;;;;;;0.43;0.43;;;17.60;60.00;;;;;;4200516;28;20060;-44
2021/03/30 10:58:46;;;;;;;0.20;0.20;;;17.60;61.10;;;;;;4200539;28;20549;-44
2021/03/30 11:01:08;;;;;;;0.08;0.08;;;17.60;60.60;;;;;;4200717;28;20065;-44
2021/03/30 11:03:29;;;;;;;0.00;0.00;;;17.60;61.30;;;;;;4200292;28;20070;-47
2021/03/30 11:05:49;;;;;;;1.38;1.33;;;17.70;61.40;;;;;;4200827;28;20049;-44
2021/03/30 11:08:12;;;;;;;0.00;0.00;;;17.70;60.90;;;;;;4200897;28;20080;-48
2021/03/30 11:10:34;;;;;;;0.10;0.10;;;17.70;60.70;;;;;;4200435;28;20490;-45
2021/03/30 11:12:55;;;;;;;0.05;0.05;;;17.70;60.30;;;;;;4200403;28;20052;-46
2021/03/30 11:15:18;;;;;;;0.65;0.65;;;17.80;59.90;;;;;;4200735;28;20135;-45
2021/03/30 11:17:39;;;;;;;0.25;0.25;;;17.80;59.60;;;;;;4200767;28;20418;-45
2021/03/30 11:20:00;;;;;;;1.45;1.35;;;17.90;59.40;;;;;;4200615;28;20548;-44
2021/03/30 11:22:22;;;;;;;0.10;0.10;;;17.90;59.10;;;;;;4200656;28;20727;-46
2021/03/30 11:24:43;;;;;;;0.52;0.52;;;17.90;58.70;;;;;;4200971;28;20048;-47
2021/03/30 11:27:05;;;;;;;0.03;0.03;;;17.90;58.50;;;;;;4200858;28;20585;-46
2021/03/30 11:29:35;;;;;;;0.20;0.20;;;18.00;58.30;;;;;;4200322;28;20114;-46
2021/03/30 11:34:37;;;;;;;0.10;0.10;;;18.00;57.80;;;;;;4200732;28;20057;-44
2021/03/30 11:37:02;;;;;;;0.40;0.40;;;18.00;57.60;;;;;;4200471;28;20063;-46
2021/03/30 11:39:23;;;;;;;0.13;0.13;;;18.10;57.50;;;;;;4200671;28;20055;-48
2021/03/30 11:41:44;;;;;;;0.25;0.25;;;18.00;57.10;;;;;;4200705;28;20056;-50
2021/03/30 11:44:06;;;;;;;0.00;0.00;;;18.10;57.00;;;;;;4200785;28;20060;-48
2021/03/30 11:46:27;;;;;;;0.05;0.05;;;18.10;56.80;;;;;;4200650;28;20459;-44
2021/03/30 11:48:48;;;;;;;0.25;0.25;;;18.10;56.40;;;;;;4200311;28;20062;-44
2021/03/30 11:51:10;;;;;;;0.00;0.00;;;18.10;56.30;;;;;;4200657;28;20052;-48
2021/03/30 11:53:30;;;;;;;0.60;0.60;;;18.20;56.00;;;;;;4199268;28;20067;-47
2021/03/30 11:55:52;;;;;;;1.65;0.85;;;18.20;55.70;;;;;;4198027;28;20055;-51
2021/03/30 11:58:12;;;;;;;0.28;0.28;;;18.20;55.60;;;;;;4197895;28;20052;-47
2021/03/30 12:00:33;;;;;;;0.00;0.00;;;18.20;55.20;;;;;;4197880;28;20468;-47
2021/03/30 12:02:55;;;;;;;0.00;0.00;;;18.20;54.80;;;;;;4197540;28;20052;-44
2021/03/30 12:05:18;;;;;;;0.00;0.00;;;18.30;54.90;;;;;;4197724;28;20507;-44
2021/03/30 12:07:40;;;;;;;0.20;0.20;;;18.30;54.60;;;;;;4197755;28;20110;-44
2021/03/30 12:10:12;;;;;;;0.20;0.20;;;18.30;54.40;;;;;;4197492;28;20064;-44
2021/03/30 12:12:35;;;;;;;0.10;0.10;;;18.30;54.40;;;;;;4197656;28;20058;-44
2021/03/30 12:14:56;;;;;;;0.00;0.00;;;18.30;54.20;;;;;;4197644;28;20431;-44
2021/03/30 12:17:17;;;;;;;;;;;18.30;54.10;;;;;;4198039;28;20063;-44
2021/03/30 12:19:38;;;;;;;0.47;0.47;;;18.30;54.00;;;;;;4196494;28;19962;-44
2021/03/30 12:21:59;;;;;;;0.20;0.20;;;18.40;54.10;;;;;;4197413;28;20302;-46
2021/03/30 12:24:21;;;;;;;0.10;0.10;;;18.40;54.30;;;;;;4197167;28;20114;-44
2021/03/30 12:26:42;;;;;;;0.00;0.00;;;18.40;54.20;;;;;;4195614;28;20520;-46
2021/03/30 12:29:03;;;;;;;0.63;0.63;;;18.40;54.10;;;;;;4197439;28;20574;-45
2021/03/30 12:31:24;;;;;;;0.00;0.00;;;18.50;54.00;;;;;;4197272;28;20080;-49
2021/03/30 12:33:45;;;;;;;;;;;18.40;53.90;;;;;;4197527;28;20056;-46
2021/03/30 12:36:07;;;;;;;0.55;0.55;;;18.50;53.70;;;;;;4197463;28;20401;-47